sensor_id;sensor_type;location;lat;lon;timestamp;temperature;humidity
20035;DHT22;10178;48.034;9.800;2022-12-07T00:01:49;5.30;99.90
20035;DHT22;10178;48.034;9.800;2022-12-07T00:04:17;5.30;99.90
20035;DHT22;10178;48.034;9.800;2022-12-07T00:06:45;5.30;99.90
20035;DHT22;10178;48.034;9.800;2022-12-07T00:09:17;5.30;99.90
20035;DHT22;10178;48.034;9.800;2022-12-07T00:11:43;5.30;99.90
20035;DHT22;10178;48.034;9.800;2022-12-07T00:14:14;5.30;99.90
20035;DHT22;10178;48.034;9.800;2022-12-07T00:16:43;5.30;99.90
20035;DHT22;10178;48.034;9.800;2022-12-07T00:19:13;5.20;99.90
20035;DHT22;10178;48.034;9.800;2022-12-07T00:21:41;5.30;99.90
20035;DHT22;10178;48.034;9.800;2022-12-07T00:24:07;5.30;99.90
20035;DHT22;10178;48.034;9.800;2022-12-07T00:26:41;5.20;99.90
20035;DHT22;10178;48.034;9.800;2022-12-07T00:29:20;5.20;99.90
20035;DHT22;10178;48.034;9.800;2022-12-07T00:31:49;5.30;99.90
20035;DHT22;10178;48.034;9.800;2022-12-07T00:34:19;5.30;99.90
20035;DHT22;10178;48.034;9.800;2022-12-07T00:36:48;5.20;99.90
20035;DHT22;10178;48.034;9.800;2022-12-07T00:39:14;5.30;99.90
20035;DHT22;10178;48.034;9.800;2022-12-07T00:41:41;5.30;99.90
20035;DHT22;10178;48.034;9.800;2022-12-07T00:44:06;5.20;99.90
20035;DHT22;10178;48.034;9.800;2022-12-07T00:46:32;5.20;99.90
20035;DHT22;10178;48.034;9.800;2022-12-07T00:48:58;5.20;99.90
20035;DHT22;10178;48.034;9.800;2022-12-07T00:51:24;5.30;99.90
20035;DHT22;10178;48.034;9.800;2022-12-07T00:53:51;5.10;99.90
20035;DHT22;10178;48.034;9.800;2022-12-07T00:56:25;5.10;99.90
20035;DHT22;10178;48.034;9.800;2022-12-07T00:58:55;5.10;99.90
20035;DHT22;10178;48.034;9.800;2022-12-07T01:01:25;5.20;99.90
20035;DHT22;10178;48.034;9.800;2022-12-07T01:03:51;5.10;99.90
20035;DHT22;10178;48.034;9.800;2022-12-07T01:06:18;5.20;99.90
20035;DHT22;10178;48.034;9.800;2022-12-07T01:08:50;5.20;99.90
20035;DHT22;10178;48.034;9.800;2022-12-07T01:11:19;5.20;99.90
20035;DHT22;10178;48.034;9.800;2022-12-07T01:13:48;5.20;99.90
20035;DHT22;10178;48.034;9.800;2022-12-07T01:16:16;5.20;99.90
20035;DHT22;10178;48.034;9.800;2022-12-07T01:18:42;5.20;99.90
20035;DHT22;10178;48.034;9.800;2022-12-07T01:21:13;5.30;99.90
20035;DHT22;10178;48.034;9.800;2022-12-07T01:23:39;5.30;99.90
20035;DHT22;10178;48.034;9.800;2022-12-07T01:26:09;5.30;99.90
20035;DHT22;10178;48.034;9.800;2022-12-07T01:28:35;5.30;99.90
20035;DHT22;10178;48.034;9.800;2022-12-07T01:31:07;5.20;99.90
20035;DHT22;10178;48.034;9.800;2022-12-07T01:33:36;5.20;99.90
20035;DHT22;10178;48.034;9.800;2022-12-07T01:36:06;5.20;99.90
20035;DHT22;10178;48.034;9.800;2022-12-07T01:38:33;5.10;99.90
20035;DHT22;10178;48.034;9.800;2022-12-07T01:40:59;4.80;99.90
20035;DHT22;10178;48.034;9.800;2022-12-07T01:43:28;4.60;99.90
20035;DHT22;10178;48.034;9.800;2022-12-07T01:45:54;4.60;99.90
20035;DHT22;10178;48.034;9.800;2022-12-07T01:48:37;4.50;99.90
20035;DHT22;10178;48.034;9.800;2022-12-07T01:51:09;4.30;99.90
20035;DHT22;10178;48.034;9.800;2022-12-07T01:53:41;4.40;99.90
20035;DHT22;10178;48.034;9.800;2022-12-07T01:56:11;4.70;99.90
20035;DHT22;10178;48.034;9.800;2022-12-07T01:58:41;4.80;99.90
20035;DHT22;10178;48.034;9.800;2022-12-07T02:01:07;4.80;99.90
20035;DHT22;10178;48.034;9.800;2022-12-07T02:03:39;5.00;99.90
20035;DHT22;10178;48.034;9.800;2022-12-07T02:06:06;4.90;99.90
20035;DHT22;10178;48.034;9.800;2022-12-07T02:08:33;4.50;99.90
20035;DHT22;10178;48.034;9.800;2022-12-07T02:11:00;4.60;99.90
20035;DHT22;10178;48.034;9.800;2022-12-07T02:13:29;4.70;99.90
20035;DHT22;10178;48.034;9.800;2022-12-07T02:21:51;5.00;99.90
20035;DHT22;10178;48.034;9.800;2022-12-07T02:30:07;5.00;99.90
20035;DHT22;10178;48.034;9.800;2022-12-07T02:35:28;5.00;99.90
20035;DHT22;10178;48.034;9.800;2022-12-07T02:38:37;5.00;99.90
20035;DHT22;10178;48.034;9.800;2022-12-07T02:43:53;5.00;99.90
20035;DHT22;10178;48.034;9.800;2022-12-07T02:46:32;5.00;99.90
20035;DHT22;10178;48.034;9.800;2022-12-07T02:48:58;5.00;99.90
20035;DHT22;10178;48.034;9.800;2022-12-07T02:51:25;4.90;99.90
20035;DHT22;10178;48.034;9.800;2022-12-07T02:53:51;5.00;99.90
20035;DHT22;10178;48.034;9.800;2022-12-07T02:56:39;5.00;99.90
20035;DHT22;10178;48.034;9.800;2022-12-07T03:10:10;4.90;99.90
20035;DHT22;10178;48.034;9.800;2022-12-07T03:15:50;4.90;99.90
20035;DHT22;10178;48.034;9.800;2022-12-07T03:18:19;4.90;99.90
20035;DHT22;10178;48.034;9.800;2022-12-07T03:20:48;4.90;99.90
20035;DHT22;10178;48.034;9.800;2022-12-07T03:23:17;4.90;99.90
20035;DHT22;10178;48.034;9.800;2022-12-07T03:25:48;4.80;99.90
20035;DHT22;10178;48.034;9.800;2022-12-07T03:28:18;4.70;99.90
20035;DHT22;10178;48.034;9.800;2022-12-07T03:33:20;4.50;99.90
20035;DHT22;10178;48.034;9.800;2022-12-07T03:36:04;4.30;99.90
20035;DHT22;10178;48.034;9.800;2022-12-07T03:38:40;4.40;99.90
20035;DHT22;10178;48.034;9.800;2022-12-07T03:41:11;3.80;99.90
20035;DHT22;10178;48.034;9.800;2022-12-07T03:43:40;4.00;99.90
20035;DHT22;10178;48.034;9.800;2022-12-07T03:46:34;4.20;99.90
20035;DHT22;10178;48.034;9.800;2022-12-07T03:49:13;4.10;99.90
20035;DHT22;10178;48.034;9.800;2022-12-07T03:51:52;4.20;99.90
20035;DHT22;10178;48.034;9.800;2022-12-07T03:54:28;3.60;99.90
20035;DHT22;10178;48.034;9.800;2022-12-07T03:56:56;3.60;99.90
20035;DHT22;10178;48.034;9.800;2022-12-07T03:59:23;3.90;99.90
20035;DHT22;10178;48.034;9.800;2022-12-07T04:01:55;4.30;99.90
20035;DHT22;10178;48.034;9.800;2022-12-07T04:04:22;4.50;99.90
20035;DHT22;10178;48.034;9.800;2022-12-07T04:06:48;4.60;99.90
20035;DHT22;10178;48.034;9.800;2022-12-07T04:09:14;4.50;99.90
20035;DHT22;10178;48.034;9.800;2022-12-07T04:11:40;4.50;99.90
20035;DHT22;10178;48.034;9.800;2022-12-07T04:14:06;4.40;99.90
20035;DHT22;10178;48.034;9.800;2022-12-07T04:16:44;4.50;99.90
20035;DHT22;10178;48.034;9.800;2022-12-07T04:19:10;4.60;99.90
20035;DHT22;10178;48.034;9.800;2022-12-07T04:21:35;4.70;99.90
20035;DHT22;10178;48.034;9.800;2022-12-07T04:24:01;4.70;99.90
20035;DHT22;10178;48.034;9.800;2022-12-07T04:26:27;4.70;99.90
20035;DHT22;10178;48.034;9.800;2022-12-07T04:28:53;4.80;99.90
20035;DHT22;10178;48.034;9.800;2022-12-07T04:31:18;4.70;99.90
20035;DHT22;10178;48.034;9.800;2022-12-07T04:33:44;4.70;99.90
20035;DHT22;10178;48.034;9.800;2022-12-07T04:36:10;4.70;99.90
20035;DHT22;10178;48.034;9.800;2022-12-07T04:38:35;4.70;99.90
20035;DHT22;10178;48.034;9.800;2022-12-07T04:41:08;4.70;99.90
20035;DHT22;10178;48.034;9.800;2022-12-07T04:43:35;4.70;99.90
20035;DHT22;10178;48.034;9.800;2022-12-07T04:46:01;4.70;99.90
20035;DHT22;10178;48.034;9.800;2022-12-07T04:48:27;4.70;99.90
20035;DHT22;10178;48.034;9.800;2022-12-07T04:50:53;4.60;99.90
20035;DHT22;10178;48.034;9.800;2022-12-07T04:53:19;4.70;99.90
20035;DHT22;10178;48.034;9.800;2022-12-07T04:55:45;4.60;99.90
20035;DHT22;10178;48.034;9.800;2022-12-07T04:58:12;4.60;99.90
20035;DHT22;10178;48.034;9.800;2022-12-07T05:00:38;4.60;99.90
20035;DHT22;10178;48.034;9.800;2022-12-07T05:03:03;4.50;99.90
20035;DHT22;10178;48.034;9.800;2022-12-07T05:05:29;4.20;99.90
20035;DHT22;10178;48.034;9.800;2022-12-07T05:07:55;4.20;99.90
20035;DHT22;10178;48.034;9.800;2022-12-07T05:10:20;4.40;99.90
20035;DHT22;10178;48.034;9.800;2022-12-07T05:12:46;4.50;99.90
20035;DHT22;10178;48.034;9.800;2022-12-07T05:15:13;4.60;99.90
20035;DHT22;10178;48.034;9.800;2022-12-07T05:17:39;4.60;99.90
20035;DHT22;10178;48.034;9.800;2022-12-07T05:20:05;4.60;99.90
20035;DHT22;10178;48.034;9.800;2022-12-07T05:22:31;4.60;99.90
20035;DHT22;10178;48.034;9.800;2022-12-07T05:24:57;4.70;99.90
20035;DHT22;10178;48.034;9.800;2022-12-07T05:27:23;4.60;99.90
20035;DHT22;10178;48.034;9.800;2022-12-07T05:29:50;4.60;99.90
20035;DHT22;10178;48.034;9.800;2022-12-07T05:32:17;4.60;99.90
20035;DHT22;10178;48.034;9.800;2022-12-07T05:34:42;4.60;99.90
20035;DHT22;10178;48.034;9.800;2022-12-07T05:37:08;4.60;99.90
20035;DHT22;10178;48.034;9.800;2022-12-07T05:39:33;4.60;99.90
20035;DHT22;10178;48.034;9.800;2022-12-07T05:41:59;4.60;99.90
20035;DHT22;10178;48.034;9.800;2022-12-07T05:44:40;4.60;99.90
20035;DHT22;10178;48.034;9.800;2022-12-07T05:47:06;4.60;99.90
20035;DHT22;10178;48.034;9.800;2022-12-07T05:49:32;4.60;99.90
20035;DHT22;10178;48.034;9.800;2022-12-07T05:51:58;4.60;99.90
20035;DHT22;10178;48.034;9.800;2022-12-07T05:54:24;4.70;99.90
20035;DHT22;10178;48.034;9.800;2022-12-07T05:56:49;4.60;99.90
20035;DHT22;10178;48.034;9.800;2022-12-07T05:59:15;4.60;99.90
20035;DHT22;10178;48.034;9.800;2022-12-07T06:02:00;4.60;99.90
20035;DHT22;10178;48.034;9.800;2022-12-07T06:04:29;4.50;99.90
20035;DHT22;10178;48.034;9.800;2022-12-07T06:06:55;4.50;99.90
20035;DHT22;10178;48.034;9.800;2022-12-07T06:09:23;4.50;99.90
20035;DHT22;10178;48.034;9.800;2022-12-07T06:11:48;4.50;99.90
20035;DHT22;10178;48.034;9.800;2022-12-07T06:14:33;4.50;99.90
20035;DHT22;10178;48.034;9.800;2022-12-07T06:16:59;4.50;99.90
20035;DHT22;10178;48.034;9.800;2022-12-07T06:19:25;4.50;99.90
20035;DHT22;10178;48.034;9.800;2022-12-07T06:21:51;4.50;99.90
20035;DHT22;10178;48.034;9.800;2022-12-07T06:24:17;4.50;99.90
20035;DHT22;10178;48.034;9.800;2022-12-07T06:26:43;4.40;99.90
20035;DHT22;10178;48.034;9.800;2022-12-07T06:29:09;4.50;99.90
20035;DHT22;10178;48.034;9.800;2022-12-07T06:31:36;4.50;99.90
20035;DHT22;10178;48.034;9.800;2022-12-07T06:34:04;4.50;99.90
20035;DHT22;10178;48.034;9.800;2022-12-07T06:36:30;4.50;99.90
20035;DHT22;10178;48.034;9.800;2022-12-07T06:38:56;4.50;99.90
20035;DHT22;10178;48.034;9.800;2022-12-07T06:41:22;4.50;99.90
20035;DHT22;10178;48.034;9.800;2022-12-07T06:43:48;4.50;99.90
20035;DHT22;10178;48.034;9.800;2022-12-07T06:46:15;4.50;99.90
20035;DHT22;10178;48.034;9.800;2022-12-07T06:48:41;4.50;99.90
20035;DHT22;10178;48.034;9.800;2022-12-07T06:51:07;4.50;99.90
20035;DHT22;10178;48.034;9.800;2022-12-07T06:53:33;4.50;99.90
20035;DHT22;10178;48.034;9.800;2022-12-07T06:55:58;4.50;99.90
20035;DHT22;10178;48.034;9.800;2022-12-07T06:58:24;4.50;99.90
20035;DHT22;10178;48.034;9.800;2022-12-07T07:00:50;4.40;99.90
20035;DHT22;10178;48.034;9.800;2022-12-07T07:03:16;4.40;99.90
20035;DHT22;10178;48.034;9.800;2022-12-07T07:05:42;4.50;99.90
20035;DHT22;10178;48.034;9.800;2022-12-07T07:08:08;4.50;99.90
20035;DHT22;10178;48.034;9.800;2022-12-07T07:10:35;4.40;99.90
20035;DHT22;10178;48.034;9.800;2022-12-07T07:13:01;4.20;99.90
20035;DHT22;10178;48.034;9.800;2022-12-07T07:15:26;4.10;99.90
20035;DHT22;10178;48.034;9.800;2022-12-07T07:17:52;4.20;99.90
20035;DHT22;10178;48.034;9.800;2022-12-07T07:20:17;4.10;99.90
20035;DHT22;10178;48.034;9.800;2022-12-07T07:22:43;4.10;99.90
20035;DHT22;10178;48.034;9.800;2022-12-07T07:25:09;4.20;99.90
20035;DHT22;10178;48.034;9.800;2022-12-07T07:27:35;4.30;99.90
20035;DHT22;10178;48.034;9.800;2022-12-07T07:30:00;4.30;99.90
20035;DHT22;10178;48.034;9.800;2022-12-07T07:32:26;4.30;99.90
20035;DHT22;10178;48.034;9.800;2022-12-07T07:34:52;4.40;99.90
20035;DHT22;10178;48.034;9.800;2022-12-07T07:37:17;4.40;99.90
20035;DHT22;10178;48.034;9.800;2022-12-07T07:39:43;4.20;99.90
20035;DHT22;10178;48.034;9.800;2022-12-07T07:42:08;4.20;99.90
20035;DHT22;10178;48.034;9.800;2022-12-07T07:47:52;4.40;99.90
20035;DHT22;10178;48.034;9.800;2022-12-07T07:50:18;4.40;99.90
20035;DHT22;10178;48.034;9.800;2022-12-07T07:52:44;4.50;99.90
20035;DHT22;10178;48.034;9.800;2022-12-07T07:55:10;4.40;99.90
20035;DHT22;10178;48.034;9.800;2022-12-07T07:57:37;4.50;99.90
20035;DHT22;10178;48.034;9.800;2022-12-07T08:00:09;4.50;99.90
20035;DHT22;10178;48.034;9.800;2022-12-07T08:02:35;4.50;99.90
20035;DHT22;10178;48.034;9.800;2022-12-07T08:05:01;4.60;99.90
20035;DHT22;10178;48.034;9.800;2022-12-07T08:07:27;4.50;99.90
20035;DHT22;10178;48.034;9.800;2022-12-07T08:09:53;4.60;99.90
20035;DHT22;10178;48.034;9.800;2022-12-07T08:12:18;4.50;99.90
20035;DHT22;10178;48.034;9.800;2022-12-07T08:14:44;4.50;99.90
20035;DHT22;10178;48.034;9.800;2022-12-07T08:17:10;4.60;99.90
20035;DHT22;10178;48.034;9.800;2022-12-07T08:19:35;4.40;99.90
20035;DHT22;10178;48.034;9.800;2022-12-07T08:22:01;4.30;99.90
20035;DHT22;10178;48.034;9.800;2022-12-07T08:24:27;4.30;99.90
20035;DHT22;10178;48.034;9.800;2022-12-07T08:26:53;4.30;99.90
20035;DHT22;10178;48.034;9.800;2022-12-07T08:29:18;4.20;99.90
20035;DHT22;10178;48.034;9.800;2022-12-07T08:31:44;3.80;99.90
20035;DHT22;10178;48.034;9.800;2022-12-07T08:34:11;3.90;99.90
20035;DHT22;10178;48.034;9.800;2022-12-07T08:36:37;4.10;99.90
20035;DHT22;10178;48.034;9.800;2022-12-07T08:39:03;4.30;99.90
20035;DHT22;10178;48.034;9.800;2022-12-07T08:41:29;4.40;99.90
20035;DHT22;10178;48.034;9.800;2022-12-07T08:43:55;4.60;99.90
20035;DHT22;10178;48.034;9.800;2022-12-07T08:46:51;4.70;99.90
20035;DHT22;10178;48.034;9.800;2022-12-07T08:49:22;4.70;99.90
20035;DHT22;10178;48.034;9.800;2022-12-07T08:51:49;4.90;99.90
20035;DHT22;10178;48.034;9.800;2022-12-07T08:54:16;5.00;99.90
20035;DHT22;10178;48.034;9.800;2022-12-07T08:56:43;5.10;99.90
20035;DHT22;10178;48.034;9.800;2022-12-07T08:59:10;5.10;99.90
20035;DHT22;10178;48.034;9.800;2022-12-07T09:01:37;5.20;99.90
20035;DHT22;10178;48.034;9.800;2022-12-07T09:04:02;5.40;99.90
20035;DHT22;10178;48.034;9.800;2022-12-07T09:06:28;5.50;99.90
20035;DHT22;10178;48.034;9.800;2022-12-07T09:08:58;5.70;99.90
20035;DHT22;10178;48.034;9.800;2022-12-07T09:11:25;5.60;99.90
20035;DHT22;10178;48.034;9.800;2022-12-07T09:13:50;5.70;99.90
20035;DHT22;10178;48.034;9.800;2022-12-07T09:16:16;5.70;99.90
20035;DHT22;10178;48.034;9.800;2022-12-07T09:18:42;5.80;99.90
20035;DHT22;10178;48.034;9.800;2022-12-07T09:21:07;5.80;99.90
20035;DHT22;10178;48.034;9.800;2022-12-07T09:23:33;5.90;99.90
20035;DHT22;10178;48.034;9.800;2022-12-07T09:26:00;5.70;99.90
20035;DHT22;10178;48.034;9.800;2022-12-07T09:28:26;5.40;99.90
20035;DHT22;10178;48.034;9.800;2022-12-07T09:30:52;5.20;99.90
20035;DHT22;10178;48.034;9.800;2022-12-07T09:33:17;5.20;99.90
20035;DHT22;10178;48.034;9.800;2022-12-07T09:35:47;5.00;99.90
20035;DHT22;10178;48.034;9.800;2022-12-07T09:38:13;5.20;99.90
20035;DHT22;10178;48.034;9.800;2022-12-07T09:40:40;4.90;99.90
20035;DHT22;10178;48.034;9.800;2022-12-07T09:43:15;4.80;99.90
20035;DHT22;10178;48.034;9.800;2022-12-07T09:45:43;5.20;99.90
20035;DHT22;10178;48.034;9.800;2022-12-07T09:48:34;5.00;99.90
20035;DHT22;10178;48.034;9.800;2022-12-07T09:51:20;5.00;99.90
20035;DHT22;10178;48.034;9.800;2022-12-07T09:53:46;5.20;99.90
20035;DHT22;10178;48.034;9.800;2022-12-07T09:56:17;5.40;99.90
20035;DHT22;10178;48.034;9.800;2022-12-07T09:58:44;5.50;99.90
20035;DHT22;10178;48.034;9.800;2022-12-07T10:01:15;5.50;99.90
20035;DHT22;10178;48.034;9.800;2022-12-07T10:03:52;5.60;99.90
20035;DHT22;10178;48.034;9.800;2022-12-07T10:06:18;5.70;99.90
20035;DHT22;10178;48.034;9.800;2022-12-07T10:08:44;5.80;99.90
20035;DHT22;10178;48.034;9.800;2022-12-07T10:11:11;5.80;99.90
20035;DHT22;10178;48.034;9.800;2022-12-07T10:13:49;5.90;99.90
20035;DHT22;10178;48.034;9.800;2022-12-07T10:18:54;5.90;99.90
20035;DHT22;10178;48.034;9.800;2022-12-07T10:21:25;6.00;99.90
20035;DHT22;10178;48.034;9.800;2022-12-07T10:24:02;6.00;99.90
20035;DHT22;10178;48.034;9.800;2022-12-07T10:26:41;6.10;99.90
20035;DHT22;10178;48.034;9.800;2022-12-07T10:29:21;6.10;99.90
20035;DHT22;10178;48.034;9.800;2022-12-07T10:31:54;5.90;99.90
20035;DHT22;10178;48.034;9.800;2022-12-07T10:34:29;5.70;99.90
20035;DHT22;10178;48.034;9.800;2022-12-07T10:37:22;5.80;99.90
20035;DHT22;10178;48.034;9.800;2022-12-07T10:39:55;6.00;99.90
20035;DHT22;10178;48.034;9.800;2022-12-07T10:42:27;6.00;99.90
20035;DHT22;10178;48.034;9.800;2022-12-07T11:05:17;6.20;99.90
20035;DHT22;10178;48.034;9.800;2022-12-07T11:24:58;5.90;99.90
20035;DHT22;10178;48.034;9.800;2022-12-07T11:27:37;6.00;99.90
20035;DHT22;10178;48.034;9.800;2022-12-07T11:32:55;6.10;99.90
20035;DHT22;10178;48.034;9.800;2022-12-07T11:38:18;6.10;99.90
20035;DHT22;10178;48.034;9.800;2022-12-07T11:40:48;6.20;99.90
20035;DHT22;10178;48.034;9.800;2022-12-07T11:43:31;6.10;99.90
20035;DHT22;10178;48.034;9.800;2022-12-07T11:45:59;6.20;99.90
20035;DHT22;10178;48.034;9.800;2022-12-07T11:51:22;6.10;99.90
20035;DHT22;10178;48.034;9.800;2022-12-07T11:53:55;6.10;99.90
20035;DHT22;10178;48.034;9.800;2022-12-07T11:56:26;6.20;99.90
20035;DHT22;10178;48.034;9.800;2022-12-07T11:59:04;6.10;99.90
20035;DHT22;10178;48.034;9.800;2022-12-07T12:06:41;6.00;99.90
20035;DHT22;10178;48.034;9.800;2022-12-07T12:09:16;5.90;99.90
20035;DHT22;10178;48.034;9.800;2022-12-07T12:11:56;5.80;99.90
20035;DHT22;10178;48.034;9.800;2022-12-07T12:17:39;5.90;99.90
20035;DHT22;10178;48.034;9.800;2022-12-07T12:20:30;6.00;99.90
20035;DHT22;10178;48.034;9.800;2022-12-07T12:23:28;6.00;99.90
20035;DHT22;10178;48.034;9.800;2022-12-07T12:25:55;6.10;99.90
20035;DHT22;10178;48.034;9.800;2022-12-07T12:31:39;6.00;99.90
20035;DHT22;10178;48.034;9.800;2022-12-07T12:36:57;6.00;99.90
20035;DHT22;10178;48.034;9.800;2022-12-07T12:39:22;6.00;99.90
20035;DHT22;10178;48.034;9.800;2022-12-07T12:41:55;6.00;99.90
20035;DHT22;10178;48.034;9.800;2022-12-07T12:46:54;5.60;99.90
20035;DHT22;10178;48.034;9.800;2022-12-07T12:51:52;4.70;99.90
20035;DHT22;10178;48.034;9.800;2022-12-07T12:56:57;4.90;99.90
20035;DHT22;10178;48.034;9.800;2022-12-07T13:02:33;5.20;99.90
20035;DHT22;10178;48.034;9.800;2022-12-07T13:05:14;4.80;99.90
20035;DHT22;10178;48.034;9.800;2022-12-07T13:15:49;4.60;99.90
20035;DHT22;10178;48.034;9.800;2022-12-07T13:21:02;5.00;99.90
20035;DHT22;10178;48.034;9.800;2022-12-07T13:28:42;5.30;99.90
20035;DHT22;10178;48.034;9.800;2022-12-07T13:33:49;5.60;99.90
20035;DHT22;10178;48.034;9.800;2022-12-07T13:38:57;5.70;99.90
20035;DHT22;10178;48.034;9.800;2022-12-07T13:41:27;5.50;99.90
20035;DHT22;10178;48.034;9.800;2022-12-07T13:47:20;5.70;99.90
20035;DHT22;10178;48.034;9.800;2022-12-07T13:49:53;5.70;99.90
20035;DHT22;10178;48.034;9.800;2022-12-07T13:52:28;5.70;99.90
20035;DHT22;10178;48.034;9.800;2022-12-07T13:55:00;5.60;99.90
20035;DHT22;10178;48.034;9.800;2022-12-07T13:57:28;5.50;99.90
20035;DHT22;10178;48.034;9.800;2022-12-07T13:59:56;5.50;99.90
20035;DHT22;10178;48.034;9.800;2022-12-07T14:02:26;5.60;99.90
20035;DHT22;10178;48.034;9.800;2022-12-07T14:05:12;5.60;99.90
20035;DHT22;10178;48.034;9.800;2022-12-07T14:07:56;5.50;99.90
20035;DHT22;10178;48.034;9.800;2022-12-07T14:12:55;5.40;99.90
20035;DHT22;10178;48.034;9.800;2022-12-07T14:15:24;5.20;99.90
20035;DHT22;10178;48.034;9.800;2022-12-07T14:17:53;5.30;99.90
20035;DHT22;10178;48.034;9.800;2022-12-07T14:20:36;5.40;99.90
20035;DHT22;10178;48.034;9.800;2022-12-07T14:23:03;5.40;99.90
20035;DHT22;10178;48.034;9.800;2022-12-07T14:25:49;5.40;99.90
20035;DHT22;10178;48.034;9.800;2022-12-07T14:28:29;5.20;99.90
20035;DHT22;10178;48.034;9.800;2022-12-07T14:30:56;5.20;99.90
20035;DHT22;10178;48.034;9.800;2022-12-07T14:33:23;4.80;99.90
20035;DHT22;10178;48.034;9.800;2022-12-07T14:35:49;4.80;99.90
20035;DHT22;10178;48.034;9.800;2022-12-07T14:38:15;4.80;99.90
20035;DHT22;10178;48.034;9.800;2022-12-07T14:40:40;5.00;99.90
20035;DHT22;10178;48.034;9.800;2022-12-07T14:43:12;5.10;99.90
20035;DHT22;10178;48.034;9.800;2022-12-07T14:45:38;5.20;99.90
20035;DHT22;10178;48.034;9.800;2022-12-07T14:48:10;5.30;99.90
20035;DHT22;10178;48.034;9.800;2022-12-07T14:50:52;5.40;99.90
20035;DHT22;10178;48.034;9.800;2022-12-07T14:53:23;5.30;99.90
20035;DHT22;10178;48.034;9.800;2022-12-07T14:55:51;5.40;99.90
20035;DHT22;10178;48.034;9.800;2022-12-07T14:58:17;5.30;99.90
20035;DHT22;10178;48.034;9.800;2022-12-07T15:00:46;5.30;99.90
20035;DHT22;10178;48.034;9.800;2022-12-07T15:03:13;5.30;99.90
20035;DHT22;10178;48.034;9.800;2022-12-07T15:05:40;5.30;99.90
20035;DHT22;10178;48.034;9.800;2022-12-07T15:08:09;5.30;99.90
20035;DHT22;10178;48.034;9.800;2022-12-07T15:10:35;5.30;99.90
20035;DHT22;10178;48.034;9.800;2022-12-07T15:13:04;5.30;99.90
20035;DHT22;10178;48.034;9.800;2022-12-07T15:15:50;5.20;99.90
20035;DHT22;10178;48.034;9.800;2022-12-07T15:18:16;5.20;99.90
20035;DHT22;10178;48.034;9.800;2022-12-07T15:20:42;5.10;99.90
20035;DHT22;10178;48.034;9.800;2022-12-07T15:23:08;5.10;99.90
20035;DHT22;10178;48.034;9.800;2022-12-07T15:25:34;5.00;99.90
20035;DHT22;10178;48.034;9.800;2022-12-07T15:28:00;4.90;99.90
20035;DHT22;10178;48.034;9.800;2022-12-07T15:30:25;5.00;99.90
20035;DHT22;10178;48.034;9.800;2022-12-07T15:32:52;5.00;99.90
20035;DHT22;10178;48.034;9.800;2022-12-07T15:35:18;5.00;99.90
20035;DHT22;10178;48.034;9.800;2022-12-07T15:37:44;5.10;99.90
20035;DHT22;10178;48.034;9.800;2022-12-07T15:40:10;4.10;99.90
20035;DHT22;10178;48.034;9.800;2022-12-07T15:42:37;4.10;99.90
20035;DHT22;10178;48.034;9.800;2022-12-07T15:45:04;4.20;99.90
20035;DHT22;10178;48.034;9.800;2022-12-07T15:47:35;4.10;99.90
20035;DHT22;10178;48.034;9.800;2022-12-07T15:50:03;4.20;99.90
20035;DHT22;10178;48.034;9.800;2022-12-07T15:52:29;4.30;99.90
20035;DHT22;10178;48.034;9.800;2022-12-07T15:54:55;4.40;99.90
20035;DHT22;10178;48.034;9.800;2022-12-07T15:57:21;4.50;99.90
20035;DHT22;10178;48.034;9.800;2022-12-07T15:59:46;4.70;99.90
20035;DHT22;10178;48.034;9.800;2022-12-07T16:02:12;4.70;99.90
20035;DHT22;10178;48.034;9.800;2022-12-07T16:04:38;4.60;99.90
20035;DHT22;10178;48.034;9.800;2022-12-07T16:07:03;4.60;99.90
20035;DHT22;10178;48.034;9.800;2022-12-07T16:09:29;4.70;99.90
20035;DHT22;10178;48.034;9.800;2022-12-07T16:11:55;4.60;99.90
20035;DHT22;10178;48.034;9.800;2022-12-07T16:14:21;4.60;99.90
20035;DHT22;10178;48.034;9.800;2022-12-07T16:16:47;4.60;99.90
20035;DHT22;10178;48.034;9.800;2022-12-07T16:19:13;4.50;99.90
20035;DHT22;10178;48.034;9.800;2022-12-07T16:21:39;4.50;99.90
20035;DHT22;10178;48.034;9.800;2022-12-07T16:24:05;4.50;99.90
20035;DHT22;10178;48.034;9.800;2022-12-07T16:26:31;4.50;99.90
20035;DHT22;10178;48.034;9.800;2022-12-07T16:28:58;4.60;99.90
20035;DHT22;10178;48.034;9.800;2022-12-07T16:31:25;4.50;99.90
20035;DHT22;10178;48.034;9.800;2022-12-07T16:33:56;4.40;99.90
20035;DHT22;10178;48.034;9.800;2022-12-07T16:36:25;4.40;99.90
20035;DHT22;10178;48.034;9.800;2022-12-07T16:38:52;4.30;99.90
20035;DHT22;10178;48.034;9.800;2022-12-07T16:41:18;4.10;99.90
20035;DHT22;10178;48.034;9.800;2022-12-07T16:43:44;3.90;99.90
20035;DHT22;10178;48.034;9.800;2022-12-07T16:46:10;4.00;99.90
20035;DHT22;10178;48.034;9.800;2022-12-07T16:48:39;4.10;99.90
20035;DHT22;10178;48.034;9.800;2022-12-07T16:51:07;4.10;99.90
20035;DHT22;10178;48.034;9.800;2022-12-07T16:53:34;4.30;99.90
20035;DHT22;10178;48.034;9.800;2022-12-07T16:56:00;4.20;99.90
20035;DHT22;10178;48.034;9.800;2022-12-07T16:58:26;4.10;99.90
20035;DHT22;10178;48.034;9.800;2022-12-07T17:00:51;3.90;99.90
20035;DHT22;10178;48.034;9.800;2022-12-07T17:03:17;4.10;99.90
20035;DHT22;10178;48.034;9.800;2022-12-07T17:05:44;4.10;99.90
20035;DHT22;10178;48.034;9.800;2022-12-07T17:08:10;4.30;99.90
20035;DHT22;10178;48.034;9.800;2022-12-07T17:10:38;4.20;99.90
20035;DHT22;10178;48.034;9.800;2022-12-07T17:13:05;4.30;99.90
20035;DHT22;10178;48.034;9.800;2022-12-07T17:16:02;4.20;99.90
20035;DHT22;10178;48.034;9.800;2022-12-07T17:18:34;4.20;99.90
20035;DHT22;10178;48.034;9.800;2022-12-07T17:21:07;3.80;99.90
20035;DHT22;10178;48.034;9.800;2022-12-07T17:23:34;3.90;99.90
20035;DHT22;10178;48.034;9.800;2022-12-07T17:26:10;4.10;99.90
20035;DHT22;10178;48.034;9.800;2022-12-07T17:28:36;4.20;99.90
20035;DHT22;10178;48.034;9.800;2022-12-07T17:31:08;4.30;99.90
20035;DHT22;10178;48.034;9.800;2022-12-07T17:33:34;4.20;99.90
20035;DHT22;10178;48.034;9.800;2022-12-07T17:36:01;4.50;99.90
20035;DHT22;10178;48.034;9.800;2022-12-07T17:38:28;4.60;99.90
20035;DHT22;10178;48.034;9.800;2022-12-07T17:40:54;4.80;99.90
20035;DHT22;10178;48.034;9.800;2022-12-07T17:43:19;4.80;99.90
20035;DHT22;10178;48.034;9.800;2022-12-07T17:45:45;4.60;99.90
20035;DHT22;10178;48.034;9.800;2022-12-07T17:48:11;4.60;99.90
20035;DHT22;10178;48.034;9.800;2022-12-07T17:50:38;4.70;99.90
20035;DHT22;10178;48.034;9.800;2022-12-07T17:53:27;5.00;99.90
20035;DHT22;10178;48.034;9.800;2022-12-07T17:55:54;5.10;99.90
20035;DHT22;10178;48.034;9.800;2022-12-07T17:58:20;5.10;99.90
20035;DHT22;10178;48.034;9.800;2022-12-07T18:00:46;5.20;99.90
20035;DHT22;10178;48.034;9.800;2022-12-07T18:03:11;5.20;99.90
20035;DHT22;10178;48.034;9.800;2022-12-07T18:05:37;5.20;99.90
20035;DHT22;10178;48.034;9.800;2022-12-07T18:08:07;5.30;99.90
20035;DHT22;10178;48.034;9.800;2022-12-07T18:10:32;5.20;99.90
20035;DHT22;10178;48.034;9.800;2022-12-07T18:12:58;5.20;99.90
20035;DHT22;10178;48.034;9.800;2022-12-07T18:15:42;5.30;99.90